createdAt,value
2022-12-03T00:04:54.586Z,21.91
2022-12-03T00:09:56.216Z,21.91
2022-12-03T00:14:57.823Z,21.92
2022-12-03T00:19:59.336Z,21.97
2022-12-03T00:25:00.800Z,21.95
2022-12-03T00:30:02.163Z,21.91
2022-12-03T00:35:03.771Z,21.93
2022-12-03T00:40:05.682Z,21.88
2022-12-03T00:45:07.280Z,21.90
2022-12-03T00:50:09.002Z,21.92
2022-12-03T00:55:10.965Z,21.95
2022-12-03T01:00:12.898Z,21.95
2022-12-03T01:05:14.328Z,21.94
2022-12-03T01:10:15.837Z,21.95
2022-12-03T01:15:17.207Z,21.92
2022-12-03T01:20:18.663Z,21.95
2022-12-03T01:25:20.061Z,21.95
2022-12-03T01:30:21.444Z,21.94
2022-12-03T01:35:22.809Z,21.98
2022-12-03T01:40:24.198Z,21.95
2022-12-03T01:45:25.603Z,21.94
2022-12-03T01:50:29.928Z,21.92
2022-12-03T01:55:31.316Z,21.92
2022-12-03T02:00:32.772Z,21.93
2022-12-03T02:05:34.150Z,21.96
2022-12-03T02:10:36.039Z,21.99
2022-12-03T02:15:39.924Z,21.97
2022-12-03T02:20:57.693Z,21.93
2022-12-03T02:25:59.122Z,21.91
2022-12-03T02:31:00.581Z,21.92
2022-12-03T02:36:03.797Z,21.92
2022-12-03T02:41:08.258Z,21.96
2022-12-03T02:46:09.664Z,21.94
2022-12-03T02:51:11.140Z,21.92
2022-12-03T02:56:14.663Z,21.92
2022-12-03T03:01:16.868Z,21.93
2022-12-03T03:06:18.369Z,21.93
2022-12-03T03:11:19.759Z,21.92
2022-12-03T03:16:21.176Z,21.98
2022-12-03T03:21:22.611Z,21.98
2022-12-03T03:26:24.495Z,21.96
2022-12-03T03:31:25.903Z,21.95
2022-12-03T03:36:27.339Z,21.96
2022-12-03T03:41:28.759Z,21.93
2022-12-03T03:46:30.250Z,21.95
2022-12-03T03:51:31.956Z,21.98
2022-12-03T03:56:33.492Z,21.95
2022-12-03T04:01:35.076Z,21.97
2022-12-03T04:06:36.491Z,21.95
2022-12-03T04:11:56.393Z,21.94
2022-12-03T04:16:57.829Z,21.92
2022-12-03T04:22:17.569Z,21.90
2022-12-03T04:27:37.372Z,21.93
2022-12-03T04:32:56.977Z,21.89
2022-12-03T04:37:58.359Z,21.90
2022-12-03T04:42:59.723Z,21.95
2022-12-03T04:48:01.111Z,21.97
2022-12-03T04:53:02.488Z,21.94
2022-12-03T04:58:03.895Z,21.96
2022-12-03T05:03:05.377Z,21.95
2022-12-03T05:08:06.830Z,21.93
2022-12-03T05:13:08.287Z,21.87
2022-12-03T05:18:09.671Z,21.88
2022-12-03T05:23:12.223Z,21.91
2022-12-03T05:28:13.619Z,21.92
2022-12-03T05:33:15.093Z,21.95
2022-12-03T05:38:16.460Z,21.95
2022-12-03T05:43:17.855Z,21.91
2022-12-03T05:48:19.287Z,21.95
2022-12-03T05:53:20.691Z,21.94
2022-12-03T05:58:22.071Z,21.91
2022-12-03T06:03:23.707Z,21.93
2022-12-03T06:08:25.218Z,21.88
2022-12-03T06:13:26.625Z,21.91
2022-12-03T06:18:28.007Z,21.88
2022-12-03T06:23:29.423Z,21.89
2022-12-03T06:28:30.805Z,21.88
2022-12-03T06:33:32.167Z,21.90
2022-12-03T06:38:33.523Z,21.86
2022-12-03T06:43:34.951Z,21.87
2022-12-03T06:48:36.388Z,21.89
2022-12-03T06:53:37.828Z,21.92
2022-12-03T06:58:39.246Z,21.95
2022-12-03T07:03:40.604Z,21.95
2022-12-03T07:08:41.974Z,21.92
2022-12-03T07:13:43.380Z,21.91
2022-12-03T07:18:44.907Z,21.88
2022-12-03T07:23:46.307Z,21.95
2022-12-03T07:28:48.222Z,21.97
2022-12-03T07:33:49.651Z,21.95
2022-12-03T07:38:51.010Z,21.92
2022-12-03T07:43:52.445Z,21.89
2022-12-03T07:48:53.823Z,21.94
2022-12-03T07:53:55.188Z,21.95
2022-12-03T07:58:56.563Z,21.95
2022-12-03T08:03:57.980Z,21.95
2022-12-03T08:08:59.355Z,21.95
2022-12-03T08:14:00.771Z,21.91
2022-12-03T08:19:02.147Z,21.93
2022-12-03T08:24:17.154Z,21.96
2022-12-03T08:29:19.219Z,21.95
2022-12-03T08:34:22.270Z,21.96
2022-12-03T08:39:30.632Z,21.95
2022-12-03T08:44:36.731Z,21.97
2022-12-03T08:49:38.103Z,21.93
2022-12-03T08:54:39.499Z,21.95
2022-12-03T08:59:45.314Z,21.95
2022-12-03T09:04:47.066Z,21.97
2022-12-03T09:09:48.439Z,21.94
2022-12-03T09:14:49.827Z,21.94
2022-12-03T09:19:51.200Z,21.94
2022-12-03T09:24:52.853Z,21.95
2022-12-03T09:29:54.436Z,21.97
2022-12-03T09:34:56.205Z,21.97
2022-12-03T09:39:57.720Z,21.91
2022-12-03T09:44:59.111Z,21.92
2022-12-03T09:50:00.481Z,21.90
2022-12-03T09:55:05.043Z,21.96
2022-12-03T10:00:18.623Z,21.96
2022-12-03T10:05:20.331Z,21.95
2022-12-03T10:10:23.187Z,21.97
2022-12-03T10:15:24.567Z,21.94
2022-12-03T10:20:25.927Z,21.96
2022-12-03T10:25:27.331Z,21.94
2022-12-03T10:30:29.007Z,21.94
2022-12-03T10:35:37.972Z,21.93
2022-12-03T10:40:39.355Z,21.94
2022-12-03T10:45:41.127Z,21.91
2022-12-03T10:50:52.014Z,21.88
2022-12-03T10:55:59.207Z,21.96
2022-12-03T11:01:01.746Z,21.97
2022-12-03T11:06:03.211Z,21.95
2022-12-03T11:11:08.675Z,21.95
2022-12-03T11:16:10.118Z,21.94
2022-12-03T11:21:12.882Z,21.94
2022-12-03T11:26:36.999Z,21.95
2022-12-03T11:31:47.540Z,21.94
2022-12-03T11:37:10.897Z,22.00
2022-12-03T11:42:27.307Z,21.98
2022-12-03T11:47:49.020Z,21.98
2022-12-03T11:53:14.415Z,21.98
2022-12-03T11:58:29.370Z,21.94
2022-12-03T12:03:45.228Z,21.92
2022-12-03T12:08:49.363Z,21.94
2022-12-03T12:13:52.636Z,21.94
2022-12-03T12:18:55.744Z,21.99
2022-12-03T12:23:57.692Z,21.97
2022-12-03T12:28:59.083Z,21.97
2022-12-03T12:34:00.470Z,21.95
2022-12-03T12:39:01.830Z,21.98
2022-12-03T12:44:09.519Z,21.96
2022-12-03T12:49:11.316Z,21.94
2022-12-03T12:54:13.811Z,21.94
2022-12-03T12:59:19.750Z,21.94
2022-12-03T13:04:23.068Z,21.97
2022-12-03T13:09:25.003Z,22.00
2022-12-03T13:14:35.495Z,21.97
2022-12-03T13:20:00.604Z,21.96
2022-12-03T13:25:58.308Z,21.95
2022-12-03T13:30:54.488Z,21.99
2022-12-03T13:35:55.916Z,22.00
2022-12-03T13:41:01.739Z,22.00
2022-12-03T13:46:03.062Z,21.98
2022-12-03T13:51:18.847Z,21.99
2022-12-03T13:56:31.715Z,21.96
2022-12-03T14:01:33.173Z,21.97
2022-12-03T14:06:34.603Z,22.01
2022-12-03T14:11:54.455Z,21.99
2022-12-03T14:16:59.841Z,21.96
2022-12-03T14:22:02.284Z,21.94
2022-12-03T14:27:03.675Z,21.97
2022-12-03T14:32:05.099Z,21.97
2022-12-03T14:37:06.498Z,22.00
2022-12-03T14:42:13.813Z,21.97
2022-12-03T14:47:16.184Z,21.97
2022-12-03T14:52:17.995Z,21.92
2022-12-03T14:57:19.411Z,21.98
2022-12-03T15:02:20.841Z,22.03
2022-12-03T15:07:22.265Z,21.97
2022-12-03T15:12:23.663Z,21.97
2022-12-03T15:17:31.235Z,21.97
2022-12-03T15:22:33.415Z,21.99
2022-12-03T15:27:34.780Z,22.00
2022-12-03T15:32:36.212Z,22.00
2022-12-03T15:37:37.587Z,22.03
2022-12-03T15:42:38.954Z,22.00
2022-12-03T15:47:40.373Z,22.02
2022-12-03T15:52:41.816Z,21.99
2022-12-03T15:57:43.306Z,21.99
2022-12-03T16:02:50.841Z,22.01
2022-12-03T16:07:53.999Z,22.02
2022-12-03T16:12:55.437Z,21.99
2022-12-03T16:17:56.818Z,21.98
2022-12-03T16:22:58.179Z,21.97
2022-12-03T16:27:59.547Z,21.98
2022-12-03T16:33:00.982Z,21.97
2022-12-03T16:38:02.364Z,21.97
2022-12-03T16:43:04.700Z,21.98
2022-12-03T16:48:06.116Z,22.00
2022-12-03T16:53:07.480Z,21.99
2022-12-03T16:58:08.856Z,21.95
2022-12-03T17:03:10.319Z,21.96
2022-12-03T17:08:11.859Z,21.96
2022-12-03T17:13:13.258Z,22.00
2022-12-03T17:18:14.649Z,22.03
2022-12-03T17:23:17.509Z,21.97
2022-12-03T17:28:18.877Z,21.96
2022-12-03T17:33:20.295Z,21.96
2022-12-03T17:38:21.688Z,22.01
2022-12-03T17:43:23.090Z,21.99
2022-12-03T17:48:24.476Z,21.96
2022-12-03T17:53:25.838Z,21.92
2022-12-03T17:58:28.387Z,21.97
2022-12-03T18:03:29.967Z,21.99
2022-12-03T18:08:31.426Z,22.01
2022-12-03T18:13:32.808Z,22.02
2022-12-03T18:18:34.172Z,21.99
2022-12-03T18:23:35.621Z,21.97
2022-12-03T18:28:37.061Z,21.97
2022-12-03T18:33:38.514Z,21.99
2022-12-03T18:38:39.891Z,22.00
2022-12-03T18:43:41.359Z,21.97
2022-12-03T18:48:43.429Z,21.98
2022-12-03T18:53:44.939Z,21.98
2022-12-03T18:58:46.328Z,21.97
2022-12-03T19:03:48.356Z,22.01
2022-12-03T19:08:53.840Z,21.99
2022-12-03T19:13:57.054Z,21.98
2022-12-03T19:18:58.430Z,21.98
2022-12-03T19:24:23.137Z,21.98
2022-12-03T19:29:22.668Z,22.00
2022-12-03T19:34:24.087Z,22.00
2022-12-03T19:39:25.465Z,21.95
2022-12-03T19:44:26.831Z,21.99
2022-12-03T19:49:28.228Z,21.99
2022-12-03T19:54:29.592Z,21.99
2022-12-03T19:59:30.964Z,21.99
2022-12-03T20:04:32.347Z,21.99
2022-12-03T20:09:33.721Z,21.97
2022-12-03T20:14:35.099Z,21.94
2022-12-03T20:19:36.518Z,21.94
2022-12-03T20:24:37.928Z,22.00
2022-12-03T20:29:39.445Z,21.99
2022-12-03T20:34:40.871Z,22.00
2022-12-03T20:39:42.239Z,21.98
2022-12-03T20:44:43.620Z,21.94
2022-12-03T20:49:45.563Z,21.95
2022-12-03T20:54:46.924Z,21.96
2022-12-03T20:59:48.322Z,21.98
2022-12-03T21:04:49.695Z,21.99
2022-12-03T21:09:51.114Z,22.00
2022-12-03T21:14:52.527Z,21.97
2022-12-03T21:19:54.325Z,21.95
2022-12-03T21:24:55.988Z,21.96
2022-12-03T21:29:57.578Z,21.96
2022-12-03T21:34:59.134Z,21.95
2022-12-03T21:40:00.516Z,21.97
2022-12-03T21:45:02.316Z,22.01
2022-12-03T21:50:05.480Z,21.97
2022-12-03T21:55:07.008Z,21.94
2022-12-03T22:00:09.160Z,21.96
2022-12-03T22:05:11.617Z,21.98
2022-12-03T22:10:13.556Z,21.97
2022-12-03T22:15:18.655Z,22.01
2022-12-03T22:20:20.859Z,21.97
2022-12-03T22:25:22.236Z,21.95
2022-12-03T22:30:23.614Z,21.95
2022-12-03T22:35:25.036Z,21.96
2022-12-03T22:40:26.411Z,22.01
2022-12-03T22:45:27.784Z,22.02
2022-12-03T22:50:29.161Z,21.99
2022-12-03T22:55:30.531Z,22.00
2022-12-03T23:00:33.672Z,22.00
2022-12-03T23:05:36.824Z,21.98
2022-12-03T23:10:42.156Z,21.96
2022-12-03T23:15:45.183Z,21.95
2022-12-03T23:20:48.152Z,21.90
2022-12-03T23:26:02.004Z,21.90
2022-12-03T23:31:03.551Z,21.97
2022-12-03T23:36:08.223Z,21.97
2022-12-03T23:41:11.484Z,22.00
2022-12-03T23:46:23.510Z,21.96
2022-12-03T23:51:25.038Z,21.95
2022-12-03T23:56:28.943Z,21.96
